createdAt,value
2018-04-15T00:02:09.994Z,92.40
2018-04-15T00:04:37.547Z,92.40
2018-04-15T00:07:05.034Z,92.40
2018-04-15T00:09:32.526Z,92.50
2018-04-15T00:12:00.079Z,92.50
2018-04-15T00:14:27.583Z,92.50
2018-04-15T00:16:55.078Z,92.60
2018-04-15T00:19:22.646Z,92.60
2018-04-15T00:21:50.147Z,92.60
2018-04-15T00:24:18.420Z,92.60
2018-04-15T00:26:46.719Z,92.50
2018-04-15T00:29:14.214Z,92.50
2018-04-15T00:31:41.710Z,92.50
2018-04-15T00:34:09.504Z,92.60
2018-04-15T00:36:36.999Z,92.60
2018-04-15T00:39:06.170Z,92.70
2018-04-15T00:41:33.727Z,92.70
2018-04-15T00:44:01.226Z,92.80
2018-04-15T00:46:28.727Z,92.80
2018-04-15T00:48:59.162Z,93.00
2018-04-15T00:51:26.662Z,93.00
2018-04-15T00:54:06.652Z,93.00
2018-04-15T00:56:34.152Z,93.00
2018-04-15T00:59:01.651Z,93.00
2018-04-15T01:01:29.216Z,93.00
2018-04-15T01:03:56.722Z,93.10
2018-04-15T01:06:24.231Z,93.10
2018-04-15T01:08:51.775Z,93.10
2018-04-15T01:11:19.287Z,93.10
2018-04-15T01:13:46.806Z,93.20
2018-04-15T01:16:14.352Z,93.20
2018-04-15T01:18:41.854Z,93.30
2018-04-15T01:21:09.371Z,93.30
2018-04-15T01:23:36.962Z,93.30
2018-04-15T01:26:04.462Z,93.30
2018-04-15T01:28:31.967Z,93.40
2018-04-15T01:30:59.511Z,93.40
2018-04-15T01:33:27.016Z,93.30
2018-04-15T01:35:54.514Z,93.30
2018-04-15T01:38:22.806Z,93.40
2018-04-15T01:40:50.318Z,93.40
2018-04-15T01:50:01.307Z,93.40
2018-04-15T01:52:28.807Z,93.50
2018-04-15T01:54:56.439Z,93.50
2018-04-15T01:57:23.975Z,93.50
2018-04-15T01:59:51.466Z,93.50
2018-04-15T02:02:18.960Z,93.50
2018-04-15T02:04:46.515Z,93.60
2018-04-15T02:07:14.015Z,93.60
2018-04-15T02:09:41.511Z,93.70
2018-04-15T02:12:09.070Z,93.70
2018-04-15T02:14:36.567Z,93.70
2018-04-15T02:17:04.063Z,93.80
2018-04-15T02:19:31.603Z,93.80
2018-04-15T02:21:59.871Z,94.00
2018-04-15T02:24:27.370Z,94.00
2018-04-15T02:26:54.903Z,94.00
2018-04-15T02:29:23.163Z,94.00
2018-04-15T02:31:50.654Z,94.00
2018-04-15T02:34:18.215Z,94.00
2018-04-15T02:36:46.470Z,94.10
2018-04-15T02:39:13.967Z,94.10
2018-04-15T02:41:41.497Z,94.20
2018-04-15T02:44:09.775Z,94.30
2018-04-15T02:46:37.276Z,94.30
2018-04-15T02:49:04.803Z,94.30
2018-04-15T02:51:33.076Z,94.40
2018-04-15T02:54:00.575Z,94.40
2018-04-15T02:56:28.890Z,94.30
2018-04-15T02:58:56.402Z,94.50
2018-04-15T03:01:23.931Z,94.50
2018-04-15T03:03:52.224Z,94.70
2018-04-15T03:06:20.508Z,94.60
2018-04-15T03:08:48.011Z,94.60
2018-04-15T03:11:15.589Z,94.60
2018-04-15T03:13:43.082Z,94.60
2018-04-15T03:16:11.343Z,94.70
2018-04-15T03:18:38.908Z,94.60
2018-04-15T03:21:06.410Z,94.60
2018-04-15T03:23:33.902Z,94.60
2018-04-15T03:26:01.445Z,94.70
2018-04-15T03:28:28.951Z,94.70
2018-04-15T03:30:56.455Z,94.70
2018-04-15T03:33:24.031Z,94.70
2018-04-15T03:35:51.536Z,94.70
2018-04-15T03:38:19.035Z,94.60
2018-04-15T03:40:46.562Z,94.70
2018-04-15T03:43:14.823Z,94.80
2018-04-15T03:45:42.316Z,94.80
2018-04-15T03:48:09.855Z,94.80
2018-04-15T03:50:37.354Z,94.80
2018-04-15T03:53:04.863Z,94.80
2018-04-15T03:55:32.435Z,94.90
2018-04-15T03:57:59.957Z,94.90
2018-04-15T04:00:27.472Z,94.90
2018-04-15T04:02:55.019Z,94.90
2018-04-15T04:05:23.282Z,95.10
2018-04-15T04:07:51.675Z,95.00
2018-04-15T04:10:19.979Z,95.10
2018-04-15T04:12:47.471Z,95.10
2018-04-15T04:15:14.962Z,95.10
2018-04-15T04:17:54.152Z,95.10
2018-04-15T04:20:33.374Z,95.10
2018-04-15T04:23:12.715Z,95.20
2018-04-15T04:26:00.755Z,95.20
2018-04-15T04:28:28.303Z,95.30
2018-04-15T04:30:56.566Z,95.40
2018-04-15T04:33:24.076Z,95.30
2018-04-15T04:35:51.606Z,95.40
2018-04-15T04:38:19.867Z,95.40
2018-04-15T04:40:48.146Z,95.40
2018-04-15T04:43:15.711Z,95.40
2018-04-15T04:45:43.987Z,95.50
2018-04-15T04:48:11.483Z,95.40
2018-04-15T04:50:39.014Z,95.40
2018-04-15T04:53:06.525Z,95.50
2018-04-15T04:55:34.032Z,95.50
2018-04-15T04:58:02.347Z,95.50
2018-04-15T05:00:29.842Z,95.50
2018-04-15T05:02:57.339Z,95.60
2018-04-15T05:05:25.622Z,95.50
2018-04-15T05:07:53.891Z,95.60
2018-04-15T05:10:21.390Z,95.60
2018-04-15T05:12:48.956Z,95.60
2018-04-15T05:15:16.450Z,95.60
2018-04-15T05:17:43.950Z,95.60
2018-04-15T05:20:11.491Z,95.60
2018-04-15T05:22:38.983Z,95.60
2018-04-15T05:25:06.492Z,95.60
2018-04-15T05:27:34.015Z,95.60
2018-04-15T05:30:01.519Z,95.60
2018-04-15T05:32:29.014Z,95.60
2018-04-15T05:34:56.583Z,95.60
2018-04-15T05:37:24.103Z,95.60
2018-04-15T05:39:51.598Z,95.60
2018-04-15T05:42:19.136Z,95.70
2018-04-15T05:44:47.399Z,95.70
2018-04-15T05:47:14.887Z,95.70
2018-04-15T05:49:42.426Z,95.70
2018-04-15T05:52:10.706Z,95.70
2018-04-15T05:54:38.205Z,95.80
2018-04-15T05:57:05.815Z,95.80
2018-04-15T05:59:33.330Z,95.80
2018-04-15T06:02:00.830Z,95.80
2018-04-15T06:04:28.362Z,95.80
2018-04-15T06:06:55.863Z,95.80
2018-04-15T06:09:23.358Z,95.90
2018-04-15T06:11:50.900Z,95.90
2018-04-15T06:14:18.413Z,95.90
2018-04-15T06:16:45.918Z,95.90
2018-04-15T06:19:13.478Z,95.90
2018-04-15T06:21:41.738Z,95.90
2018-04-15T06:24:09.234Z,95.90
2018-04-15T06:26:36.771Z,95.90
2018-04-15T06:29:04.288Z,95.90
2018-04-15T06:31:31.793Z,95.90
2018-04-15T06:33:59.338Z,96.00
2018-04-15T06:36:26.830Z,95.90
2018-04-15T06:38:54.322Z,95.90
2018-04-15T06:41:21.878Z,95.90
2018-04-15T06:43:49.383Z,96.10
2018-04-15T06:46:16.919Z,95.90
2018-04-15T06:48:47.467Z,95.90
2018-04-15T06:51:15.011Z,95.90
2018-04-15T06:53:42.519Z,95.90
2018-04-15T06:56:10.780Z,96.00
2018-04-15T06:58:38.343Z,95.90
2018-04-15T07:01:05.837Z,96.00
2018-04-15T07:03:33.351Z,95.90
2018-04-15T07:06:00.895Z,95.90
2018-04-15T07:08:28.396Z,95.90
2018-04-15T07:10:56.659Z,96.00
2018-04-15T07:13:24.174Z,96.00
2018-04-15T07:15:51.678Z,96.00
2018-04-15T07:18:19.246Z,95.90
2018-04-15T07:20:46.743Z,95.90
2018-04-15T07:23:14.238Z,95.80
2018-04-15T07:25:41.769Z,95.80
2018-04-15T07:28:09.274Z,95.70
2018-04-15T07:30:36.774Z,95.60
2018-04-15T07:33:04.324Z,95.50
2018-04-15T07:35:32.583Z,95.80
2018-04-15T07:38:00.086Z,95.50
2018-04-15T07:40:27.614Z,95.50
2018-04-15T07:42:55.885Z,95.60
2018-04-15T07:45:23.400Z,95.50
2018-04-15T07:47:51.714Z,95.70
2018-04-15T07:50:19.210Z,95.60
2018-04-15T07:52:46.710Z,95.50
2018-04-15T07:55:14.255Z,95.40
2018-04-15T07:57:41.798Z,95.20
2018-04-15T08:00:09.342Z,95.10
2018-04-15T08:02:36.846Z,95.10
2018-04-15T08:05:04.350Z,95.10
2018-04-15T08:07:31.956Z,94.90
2018-04-15T08:09:59.455Z,95.00
2018-04-15T08:12:26.950Z,94.90
2018-04-15T08:14:54.531Z,94.90
2018-04-15T08:17:22.028Z,95.00
2018-04-15T08:19:49.711Z,95.00
2018-04-15T08:22:17.310Z,95.00
2018-04-15T08:24:44.894Z,94.90
2018-04-15T08:27:12.391Z,94.70
2018-04-15T08:29:39.935Z,94.60
2018-04-15T08:32:07.441Z,94.60
2018-04-15T08:34:35.710Z,94.50
2018-04-15T08:37:03.217Z,94.50
2018-04-15T08:39:30.718Z,94.40
2018-04-15T08:41:58.287Z,94.30
2018-04-15T08:44:25.782Z,94.30
2018-04-15T08:46:53.283Z,94.20
2018-04-15T08:49:22.843Z,94.20
2018-04-15T08:51:50.339Z,94.10
2018-04-15T08:54:17.834Z,94.10
2018-04-15T08:56:45.413Z,94.10
2018-04-15T08:59:13.018Z,93.90
2018-04-15T09:01:40.557Z,93.70
2018-04-15T09:04:08.091Z,93.70
2018-04-15T09:06:35.590Z,93.50
2018-04-15T09:09:03.102Z,93.80
2018-04-15T09:11:31.492Z,93.30
2018-04-15T09:13:59.759Z,93.20
2018-04-15T09:16:27.359Z,93.20
2018-04-15T09:18:54.883Z,93.20
2018-04-15T09:21:22.386Z,93.20
2018-04-15T09:23:49.893Z,93.20
2018-04-15T09:26:17.430Z,93.10
2018-04-15T09:28:44.923Z,93.40
2018-04-15T09:31:12.456Z,93.00
2018-04-15T09:33:40.051Z,92.90
2018-04-15T09:36:07.552Z,92.80
2018-04-15T09:38:35.126Z,92.80
2018-04-15T09:41:02.637Z,92.70
2018-04-15T09:43:30.142Z,92.60
2018-04-15T09:45:57.648Z,92.50
2018-04-15T09:48:25.143Z,92.40
2018-04-15T09:50:52.683Z,92.30
2018-04-15T09:53:20.182Z,92.30
2018-04-15T09:55:47.679Z,92.20
2018-04-15T09:58:15.250Z,92.10
2018-04-15T10:00:42.969Z,92.00
2018-04-15T10:03:10.475Z,92.00
2018-04-15T10:05:37.994Z,92.10
2018-04-15T10:08:05.491Z,92.10
2018-04-15T10:10:32.993Z,92.10
2018-04-15T10:13:00.543Z,92.10
2018-04-15T10:15:28.814Z,92.10
2018-04-15T10:17:56.315Z,92.00
2018-04-15T10:20:23.890Z,92.00
2018-04-15T10:22:51.399Z,92.20
2018-04-15T10:25:19.678Z,92.00
2018-04-15T10:27:47.984Z,92.20
2018-04-15T10:30:15.479Z,92.10
2018-04-15T10:32:42.997Z,92.10
2018-04-15T10:35:10.514Z,92.10
2018-04-15T10:37:38.009Z,92.10
2018-04-15T10:40:05.531Z,92.10
2018-04-15T10:42:33.079Z,92.10
2018-04-15T10:45:00.590Z,92.00
2018-04-15T10:47:28.864Z,91.80
2018-04-15T10:49:56.411Z,91.80
2018-04-15T10:52:24.698Z,91.80
2018-04-15T10:54:52.199Z,91.80
2018-04-15T10:57:19.714Z,91.80
2018-04-15T10:59:48.004Z,91.70
2018-04-15T11:02:15.548Z,91.70
2018-04-15T11:04:43.833Z,91.70
2018-04-15T11:07:11.358Z,91.70
2018-04-15T11:09:38.901Z,91.70
2018-04-15T11:12:06.427Z,91.70
2018-04-15T11:14:33.935Z,91.60
2018-04-15T11:17:01.479Z,91.40
2018-04-15T11:19:29.746Z,91.00
2018-04-15T11:21:57.252Z,91.00
2018-04-15T11:24:24.807Z,90.30
2018-04-15T11:26:52.361Z,90.00
2018-04-15T11:29:19.863Z,89.90
2018-04-15T11:31:47.398Z,89.90
2018-04-15T11:34:15.020Z,89.80
2018-04-15T11:36:42.549Z,89.90
2018-04-15T11:39:10.083Z,90.40
2018-04-15T11:41:37.579Z,90.50
2018-04-15T11:44:05.089Z,90.60
2018-04-15T11:46:32.617Z,90.60
2018-04-15T11:49:00.119Z,90.70
2018-04-15T11:51:27.680Z,90.70
2018-04-15T11:53:55.200Z,90.80
2018-04-15T11:56:22.778Z,90.20
2018-04-15T11:58:50.374Z,90.00
2018-04-15T12:01:17.874Z,89.70
2018-04-15T12:03:45.388Z,89.40
2018-04-15T12:06:12.891Z,89.20
2018-04-15T12:08:40.438Z,89.10
2018-04-15T12:11:07.946Z,88.90
2018-04-15T12:13:35.464Z,88.70
2018-04-15T12:16:02.998Z,89.30
2018-04-15T12:18:30.498Z,88.50
2018-04-15T12:20:58.007Z,88.50
2018-04-15T12:23:25.533Z,89.40
2018-04-15T12:25:53.035Z,88.80
2018-04-15T12:28:20.542Z,88.80
2018-04-15T12:30:48.117Z,88.80
2018-04-15T12:33:15.619Z,89.00
2018-04-15T12:35:43.158Z,89.30
2018-04-15T12:38:10.691Z,89.00
2018-04-15T12:40:38.219Z,88.60
2018-04-15T12:43:05.722Z,88.50
2018-04-15T12:45:33.281Z,88.30
2018-04-15T12:48:00.787Z,88.40
2018-04-15T12:50:28.283Z,88.70
2018-04-15T12:52:55.832Z,88.50
2018-04-15T12:55:24.108Z,88.80
2018-04-15T12:57:52.372Z,88.80
2018-04-15T13:00:20.104Z,88.70
2018-04-15T13:02:47.610Z,88.50
2018-04-15T13:05:15.128Z,88.30
2018-04-15T13:07:42.646Z,88.20
2018-04-15T13:10:10.151Z,88.00
2018-04-15T13:12:37.650Z,88.00
2018-04-15T13:15:06.002Z,87.80
2018-04-15T13:17:33.519Z,87.70
2018-04-15T13:20:01.819Z,87.50
2018-04-15T13:22:29.331Z,87.30
2018-04-15T13:24:57.610Z,86.80
2018-04-15T13:27:25.211Z,86.80
2018-04-15T13:29:52.759Z,86.70
2018-04-15T13:32:20.271Z,86.80
2018-04-15T13:34:47.878Z,86.70
2018-04-15T13:37:15.371Z,86.60
2018-04-15T13:39:42.885Z,86.70
2018-04-15T13:42:10.387Z,86.70
2018-04-15T13:44:37.947Z,86.60
2018-04-15T13:47:05.459Z,86.50
2018-04-15T13:49:33.744Z,86.70
2018-04-15T13:52:02.045Z,86.60
2018-04-15T13:54:29.555Z,86.60
2018-04-15T13:56:57.059Z,86.50
2018-04-15T13:59:25.371Z,86.40
2018-04-15T14:01:52.886Z,87.00
2018-04-15T14:04:20.389Z,86.10
2018-04-15T14:06:47.948Z,86.00
2018-04-15T14:09:15.455Z,85.80
2018-04-15T14:11:42.958Z,85.70
2018-04-15T14:14:10.494Z,85.70
2018-04-15T14:16:37.995Z,85.60
2018-04-15T14:19:05.505Z,85.70
2018-04-15T14:21:33.787Z,85.80
2018-04-15T14:24:02.057Z,85.50
2018-04-15T14:26:29.610Z,85.50
2018-04-15T14:28:57.131Z,85.50
2018-04-15T14:31:24.652Z,85.40
2018-04-15T14:33:53.016Z,85.60
2018-04-15T14:36:20.541Z,85.50
2018-04-15T14:38:48.039Z,85.50
2018-04-15T14:41:15.553Z,85.30
2018-04-15T14:43:43.055Z,85.10
2018-04-15T14:46:10.599Z,84.60
2018-04-15T14:48:38.098Z,84.30
2018-04-15T14:51:06.363Z,84.10
2018-04-15T14:53:33.962Z,84.10
2018-04-15T14:56:01.463Z,83.90
2018-04-15T14:58:28.976Z,83.90
2018-04-15T15:00:56.527Z,83.60
2018-04-15T15:03:24.027Z,83.40
2018-04-15T15:05:51.529Z,83.20
2018-04-15T15:08:19.818Z,83.20
2018-04-15T15:10:47.314Z,83.20
2018-04-15T15:13:15.580Z,84.40
2018-04-15T15:15:43.099Z,83.60
2018-04-15T15:18:10.606Z,83.90
2018-04-15T15:20:38.154Z,84.20
2018-04-15T15:23:05.658Z,84.50
2018-04-15T15:25:33.167Z,84.80
2018-04-15T15:28:00.727Z,84.90
2018-04-15T15:30:28.227Z,84.70
2018-04-15T15:32:55.728Z,84.40
2018-04-15T15:35:25.091Z,84.40
2018-04-15T15:37:52.601Z,84.40
2018-04-15T15:40:23.135Z,84.80
2018-04-15T15:42:52.725Z,85.30
2018-04-15T15:45:20.631Z,85.30
2018-04-15T15:47:55.777Z,85.40
2018-04-15T15:50:23.319Z,85.80
2018-04-15T15:52:51.598Z,85.80
2018-04-15T15:55:19.127Z,85.70
2018-04-15T15:57:46.628Z,85.90
2018-04-15T16:00:14.157Z,86.70
2018-04-15T16:02:43.909Z,87.20
2018-04-15T16:05:11.435Z,87.70
2018-04-15T16:07:38.940Z,88.40
2018-04-15T16:10:06.481Z,88.80
2018-04-15T16:12:34.779Z,89.80
2018-04-15T16:15:02.279Z,89.80
2018-04-15T16:17:29.783Z,90.10
2018-04-15T16:19:57.363Z,90.30
2018-04-15T16:22:24.867Z,90.50
2018-04-15T16:24:52.375Z,90.50
2018-04-15T16:27:19.951Z,90.80
2018-04-15T16:29:47.446Z,91.50
2018-04-15T16:32:14.956Z,91.60
2018-04-15T16:34:42.482Z,91.70
2018-04-15T16:37:10.745Z,91.60
2018-04-15T16:39:38.324Z,91.90
2018-04-15T16:42:05.826Z,91.90
2018-04-15T16:44:33.323Z,91.80
2018-04-15T16:47:00.837Z,91.50
2018-04-15T16:49:28.355Z,91.50
2018-04-15T16:51:55.907Z,91.40
2018-04-15T16:54:23.410Z,91.20
2018-04-15T16:56:50.991Z,91.00
2018-04-15T16:59:18.487Z,90.80
2018-04-15T17:01:45.993Z,90.70
2018-04-15T17:04:13.531Z,90.70
2018-04-15T17:06:41.799Z,90.60
2018-04-15T17:09:09.307Z,90.60
2018-04-15T17:11:37.527Z,90.60
2018-04-15T17:14:05.034Z,90.60
2018-04-15T17:16:32.543Z,90.60
2018-04-15T17:19:00.351Z,90.70
2018-04-15T17:21:27.883Z,90.70
2018-04-15T17:23:55.394Z,90.80
2018-04-15T17:26:23.303Z,91.30
2018-04-15T17:28:50.800Z,91.40
2018-04-15T17:31:18.297Z,91.30
2018-04-15T17:33:45.835Z,91.30
2018-04-15T17:36:13.335Z,91.40
2018-04-15T17:38:40.841Z,91.50
2018-04-15T17:41:08.411Z,91.50
2018-04-15T17:43:35.928Z,91.60
2018-04-15T17:46:03.438Z,91.60
2018-04-15T17:48:30.980Z,91.70
2018-04-15T17:50:58.511Z,91.70
2018-04-15T17:53:26.070Z,91.80
2018-04-15T17:55:53.567Z,91.80
2018-04-15T17:58:21.838Z,91.90
2018-04-15T18:00:50.149Z,91.90
2018-04-15T18:03:17.651Z,91.90
2018-04-15T18:05:45.151Z,91.90
2018-04-15T18:08:12.715Z,91.90
2018-04-15T18:10:40.214Z,91.90
2018-04-15T18:13:07.712Z,92.00
2018-04-15T18:15:36.010Z,92.10
2018-04-15T18:18:04.271Z,92.10
2018-04-15T18:20:31.770Z,92.10
2018-04-15T18:22:59.278Z,92.20
2018-04-15T18:25:26.775Z,92.20
2018-04-15T18:27:54.344Z,92.20
2018-04-15T18:30:21.847Z,92.30
2018-04-15T18:32:49.382Z,92.30
2018-04-15T18:35:17.035Z,92.30
2018-04-15T18:37:44.543Z,92.40
2018-04-15T18:40:14.055Z,92.50
2018-04-15T18:42:41.590Z,92.50
2018-04-15T18:45:09.091Z,92.60
2018-04-15T18:47:37.367Z,92.70
2018-04-15T18:50:04.950Z,92.70
2018-04-15T18:52:32.398Z,92.70
2018-04-15T18:55:00.927Z,92.80
2018-04-15T18:57:28.431Z,92.80
2018-04-15T18:59:55.929Z,92.90
2018-04-15T19:02:23.467Z,92.80
2018-04-15T19:04:51.056Z,92.90
2018-04-15T19:07:18.551Z,92.90
2018-04-15T19:09:46.099Z,92.90
2018-04-15T19:12:13.652Z,92.90
2018-04-15T19:14:41.127Z,93.30
2018-04-15T19:17:08.636Z,92.90
2018-04-15T19:19:36.896Z,93.00
2018-04-15T19:22:04.458Z,93.00
2018-04-15T19:24:32.727Z,93.00
2018-04-15T19:27:00.508Z,93.00
2018-04-15T19:29:28.059Z,93.00
2018-04-15T19:31:55.571Z,93.00
2018-04-15T19:34:23.066Z,93.10
2018-04-15T19:36:50.586Z,93.10
2018-04-15T19:39:18.095Z,93.10
2018-04-15T19:41:45.614Z,93.20
2018-04-15T19:44:13.147Z,93.20
2018-04-15T19:46:40.654Z,93.10
2018-04-15T19:49:09.147Z,93.30
2018-04-15T19:51:36.772Z,93.40
2018-04-15T19:54:04.258Z,93.40
2018-04-15T19:56:31.803Z,93.50
2018-04-15T19:58:59.310Z,93.50
2018-04-15T20:01:26.802Z,93.50
2018-04-15T20:03:54.325Z,93.50
2018-04-15T20:06:21.835Z,93.60
2018-04-15T20:08:49.345Z,93.60
2018-04-15T20:11:16.888Z,93.60
2018-04-15T20:13:44.382Z,93.60
2018-04-15T20:16:11.887Z,93.60
2018-04-15T20:18:39.399Z,93.70
2018-04-15T20:21:07.688Z,93.70
2018-04-15T20:23:35.283Z,93.70
2018-04-15T20:26:02.787Z,93.70
2018-04-15T20:28:30.293Z,93.60
2018-04-15T20:30:57.847Z,93.60
2018-04-15T20:33:25.347Z,93.80
2018-04-15T20:35:52.843Z,93.90
2018-04-15T20:38:21.142Z,94.10
2018-04-15T20:40:48.646Z,94.10
2018-04-15T20:43:16.181Z,94.20
2018-04-15T20:45:43.755Z,94.20
2018-04-15T20:48:11.263Z,94.40
2018-04-15T20:50:38.761Z,94.60
2018-04-15T20:53:06.268Z,94.90
2018-04-15T20:55:33.771Z,95.00
2018-04-15T20:58:01.306Z,95.20
2018-04-15T21:00:28.816Z,95.30
2018-04-15T21:02:56.334Z,95.40
2018-04-15T21:05:23.906Z,95.50
2018-04-15T21:07:51.726Z,95.60
2018-04-15T21:10:18.777Z,95.60
2018-04-15T21:12:45.866Z,95.60
2018-04-15T21:15:12.906Z,95.70
2018-04-15T21:17:39.964Z,95.70
2018-04-15T21:20:07.818Z,95.70
2018-04-15T21:22:35.638Z,95.70
2018-04-15T21:25:02.686Z,95.70
2018-04-15T21:27:29.798Z,95.70
2018-04-15T21:29:57.623Z,95.70
2018-04-15T21:32:24.667Z,95.70
2018-04-15T21:34:51.759Z,95.70
2018-04-15T21:37:18.810Z,95.70
2018-04-15T21:39:45.854Z,95.70
2018-04-15T21:42:12.956Z,95.60
2018-04-15T21:44:39.998Z,95.60
2018-04-15T21:47:07.043Z,95.60
2018-04-15T21:49:34.137Z,95.50
2018-04-15T21:52:01.183Z,95.30
2018-04-15T21:54:28.307Z,95.20
2018-04-15T21:56:55.350Z,95.00
2018-04-15T21:59:22.398Z,94.90
2018-04-15T22:01:49.490Z,94.80
2018-04-15T22:04:16.535Z,94.80
2018-04-15T22:06:43.578Z,94.80
2018-04-15T22:09:12.036Z,94.70
2018-04-15T22:11:44.859Z,94.60
2018-04-15T22:14:11.914Z,94.60
2018-04-15T22:16:38.994Z,94.60
2018-04-15T22:19:06.802Z,94.70
2018-04-15T22:21:33.846Z,94.60
2018-04-15T22:24:00.938Z,94.70
2018-04-15T22:26:27.986Z,94.80
2018-04-15T22:28:55.034Z,94.80
2018-04-15T22:31:22.086Z,94.80
2018-04-15T22:33:49.163Z,94.80
2018-04-15T22:36:16.214Z,94.90
2018-04-15T22:38:44.018Z,95.00
2018-04-15T22:41:11.074Z,94.90
2018-04-15T22:43:38.110Z,95.00
2018-04-15T22:46:05.225Z,95.00
2018-04-15T22:48:37.904Z,95.00
2018-04-15T22:51:04.954Z,95.00
2018-04-15T22:53:32.805Z,95.10
2018-04-15T22:56:05.468Z,95.10
2018-04-15T22:58:38.281Z,95.10
2018-04-15T23:01:05.341Z,95.10
2018-04-15T23:03:32.454Z,95.20
2018-04-15T23:05:59.506Z,95.20
2018-04-15T23:08:26.557Z,95.30
2018-04-15T23:10:53.646Z,95.30
2018-04-15T23:13:20.694Z,95.30
2018-04-15T23:15:48.511Z,95.40
2018-04-15T23:18:15.590Z,95.40
2018-04-15T23:20:42.649Z,95.40
2018-04-15T23:23:09.698Z,95.50
2018-04-15T23:25:36.770Z,95.50
2018-04-15T23:28:03.813Z,95.50
2018-04-15T23:30:30.949Z,95.60
2018-04-15T23:32:58.813Z,95.70
2018-04-15T23:35:26.626Z,95.80
2018-04-15T23:37:53.674Z,95.70
2018-04-15T23:40:20.732Z,95.70
2018-04-15T23:42:47.774Z,95.80
2018-04-15T23:45:14.866Z,95.80
2018-04-15T23:47:41.907Z,95.80
2018-04-15T23:50:08.963Z,95.90
2018-04-15T23:52:36.054Z,95.90
2018-04-15T23:55:03.098Z,96.00
2018-04-15T23:57:30.146Z,95.90
2018-04-15T23:59:57.222Z,96.00
